createdAt,value
2019-03-31T04:00:52.694Z,99.99
2019-03-31T04:01:52.576Z,99.99
2019-03-31T04:03:45.242Z,99.99
2019-03-31T04:04:45.134Z,99.99
2019-03-31T04:06:37.838Z,99.99
2019-03-31T04:07:37.690Z,99.99
2019-03-31T04:09:30.364Z,99.99
2019-03-31T04:10:30.253Z,99.99
2019-03-31T04:12:22.935Z,99.99
2019-03-31T04:13:22.811Z,99.99
2019-03-31T04:15:15.487Z,99.99
2019-03-31T04:16:15.366Z,99.99
2019-03-31T04:18:08.044Z,99.99
2019-03-31T04:19:07.908Z,99.99
2019-03-31T04:21:00.601Z,99.99
2019-03-31T04:22:00.473Z,99.99
2019-03-31T04:23:53.222Z,99.99
2019-03-31T04:24:53.028Z,99.99
2019-03-31T04:26:45.720Z,99.79
2019-03-31T04:27:45.590Z,99.99
2019-03-31T04:29:38.270Z,99.99
2019-03-31T04:30:38.160Z,99.99
2019-03-31T04:32:30.855Z,99.99
2019-03-31T04:33:49.642Z,99.99
2019-03-31T04:35:23.386Z,99.99
2019-03-31T04:36:23.290Z,99.99
2019-03-31T04:38:15.977Z,99.60
2019-03-31T04:39:15.834Z,99.79
2019-03-31T04:41:08.501Z,99.99
2019-03-31T04:42:08.394Z,99.79
2019-03-31T04:44:01.075Z,99.69
2019-03-31T04:45:00.950Z,99.60
2019-03-31T04:46:53.625Z,99.79
2019-03-31T04:47:53.511Z,99.69
2019-03-31T04:49:46.175Z,99.69
2019-03-31T04:50:46.056Z,99.79
2019-03-31T04:52:38.756Z,99.79
2019-03-31T04:53:38.627Z,99.50
2019-03-31T04:55:31.307Z,99.99
2019-03-31T04:56:31.193Z,99.88
2019-03-31T04:58:23.889Z,99.64
2019-03-31T04:59:23.761Z,99.98
2019-03-31T05:01:16.432Z,99.99
2019-03-31T05:02:16.313Z,99.99
2019-03-31T05:04:09.158Z,99.99
2019-03-31T05:05:08.885Z,99.99
2019-03-31T05:07:01.537Z,99.99
2019-03-31T05:08:01.420Z,99.99
2019-03-31T05:09:54.106Z,99.99
2019-03-31T05:10:53.984Z,99.99
2019-03-31T05:12:46.647Z,99.99
2019-03-31T05:13:46.528Z,99.99
2019-03-31T05:15:39.219Z,99.99
2019-03-31T05:16:39.089Z,99.99
2019-03-31T05:18:31.770Z,99.99
2019-03-31T05:19:31.671Z,99.99
2019-03-31T05:21:24.332Z,99.99
2019-03-31T05:22:24.237Z,99.99
2019-03-31T05:24:16.906Z,99.99
2019-03-31T05:25:16.760Z,99.99
2019-03-31T05:27:09.426Z,99.99
2019-03-31T05:28:09.314Z,99.99
2019-03-31T05:30:02.174Z,99.99
2019-03-31T05:31:01.885Z,99.99
2019-03-31T05:32:54.530Z,99.99
2019-03-31T05:33:54.419Z,99.99
2019-03-31T05:35:47.120Z,99.99
2019-03-31T05:36:46.981Z,99.99
2019-03-31T05:38:39.651Z,99.99
2019-03-31T05:39:39.540Z,99.99
2019-03-31T05:41:32.211Z,99.99
2019-03-31T05:42:32.084Z,99.99
2019-03-31T05:44:24.769Z,99.99
2019-03-31T05:45:24.660Z,99.99
2019-03-31T05:47:17.348Z,99.99
2019-03-31T05:48:17.218Z,99.99
2019-03-31T05:50:09.921Z,99.99
2019-03-31T05:51:09.793Z,99.99
2019-03-31T05:53:02.458Z,99.99
2019-03-31T05:54:02.342Z,99.99
2019-03-31T05:55:55.013Z,99.99
2019-03-31T05:56:54.900Z,99.99
2019-03-31T05:58:47.575Z,99.99
2019-03-31T05:59:47.452Z,99.99
2019-03-31T06:01:40.110Z,99.99
2019-03-31T06:02:40.022Z,99.99
2019-03-31T06:04:33.668Z,99.99
2019-03-31T06:05:32.558Z,99.99
2019-03-31T06:07:25.230Z,99.99
2019-03-31T06:08:25.122Z,99.99
2019-03-31T06:10:17.823Z,99.99
2019-03-31T06:11:17.673Z,99.99
2019-03-31T06:13:10.356Z,99.99
2019-03-31T06:14:10.235Z,99.99
2019-03-31T06:16:02.914Z,99.99
2019-03-31T06:17:02.786Z,99.99
2019-03-31T06:18:55.452Z,99.99
2019-03-31T06:19:55.344Z,99.99
2019-03-31T06:21:48.039Z,99.99
2019-03-31T06:22:47.915Z,99.99
2019-03-31T06:24:40.578Z,99.99
2019-03-31T06:25:40.463Z,99.99
2019-03-31T06:27:33.147Z,99.99
2019-03-31T06:28:33.024Z,99.99
2019-03-31T06:30:25.683Z,99.99
2019-03-31T06:31:25.574Z,99.99
2019-03-31T06:33:18.249Z,99.99
2019-03-31T06:34:18.121Z,99.99
2019-03-31T06:36:10.789Z,99.99
2019-03-31T06:37:10.682Z,99.99
2019-03-31T06:39:03.384Z,99.99
2019-03-31T06:40:03.254Z,99.99
2019-03-31T06:41:55.938Z,99.99
2019-03-31T06:42:55.827Z,99.99
2019-03-31T06:44:48.516Z,99.99
2019-03-31T06:45:48.385Z,99.99
2019-03-31T06:47:41.055Z,99.60
2019-03-31T06:48:40.945Z,99.60
2019-03-31T06:50:33.646Z,99.69
2019-03-31T06:51:33.600Z,99.50
2019-03-31T06:53:26.185Z,99.22
2019-03-31T06:54:26.074Z,98.93
2019-03-31T06:56:18.761Z,98.46
2019-03-31T06:57:18.632Z,97.65
2019-03-31T06:59:11.344Z,97.88
2019-03-31T07:00:11.215Z,98.65
2019-03-31T07:02:03.870Z,97.41
2019-03-31T07:03:03.754Z,98.08
2019-03-31T07:05:01.326Z,97.36
2019-03-31T07:05:56.315Z,97.17
2019-03-31T07:07:49.000Z,97.46
2019-03-31T07:08:48.888Z,97.55
2019-03-31T07:10:41.581Z,96.31
2019-03-31T07:11:41.799Z,96.12
2019-03-31T07:13:34.141Z,96.31
2019-03-31T07:14:34.016Z,96.03
2019-03-31T07:16:26.712Z,96.12
2019-03-31T07:17:26.574Z,95.22
2019-03-31T07:19:19.239Z,94.46
2019-03-31T07:20:19.135Z,93.89
2019-03-31T07:22:11.814Z,91.84
2019-03-31T07:23:11.691Z,90.89
2019-03-31T07:25:04.352Z,92.08
2019-03-31T07:26:04.248Z,92.36
2019-03-31T07:27:56.942Z,90.55
2019-03-31T07:28:56.814Z,88.50
2019-03-31T07:30:49.510Z,86.54
2019-03-31T07:31:49.394Z,86.06
2019-03-31T07:33:42.087Z,85.58
2019-03-31T07:34:41.956Z,85.45
2019-03-31T07:36:34.635Z,85.93
2019-03-31T07:37:46.616Z,86.88
2019-03-31T07:39:27.285Z,87.60
2019-03-31T07:40:27.099Z,87.50
2019-03-31T07:42:19.801Z,87.40
2019-03-31T07:43:19.765Z,87.88
2019-03-31T07:45:12.355Z,87.50
2019-03-31T07:46:12.228Z,87.60
2019-03-31T07:48:08.003Z,88.07
2019-03-31T07:49:04.792Z,88.84
2019-03-31T07:50:57.474Z,88.89
2019-03-31T07:51:57.356Z,89.36
2019-03-31T07:53:50.023Z,89.65
2019-03-31T07:54:49.922Z,88.74
2019-03-31T07:56:42.608Z,88.07
2019-03-31T07:57:42.508Z,88.02
2019-03-31T07:59:35.160Z,87.07
2019-03-31T08:00:35.050Z,87.12
2019-03-31T08:02:27.986Z,87.50
2019-03-31T08:03:27.616Z,88.31
2019-03-31T08:05:32.366Z,89.26
2019-03-31T08:06:20.191Z,89.75
2019-03-31T08:08:12.878Z,90.46
2019-03-31T08:09:12.748Z,91.13
2019-03-31T08:11:05.441Z,91.60
2019-03-31T08:12:05.310Z,91.51
2019-03-31T08:13:57.985Z,90.84
2019-03-31T08:14:57.881Z,90.65
2019-03-31T08:16:50.578Z,90.60
2019-03-31T08:17:50.454Z,90.22
2019-03-31T08:19:43.121Z,89.17
2019-03-31T08:20:43.009Z,89.26
2019-03-31T08:22:35.707Z,90.46
2019-03-31T08:23:35.579Z,89.98
2019-03-31T08:25:28.255Z,90.36
2019-03-31T08:26:28.142Z,90.27
2019-03-31T08:28:21.380Z,90.41
2019-03-31T08:29:20.704Z,89.89
2019-03-31T08:31:13.379Z,90.56
2019-03-31T08:32:13.275Z,90.27
2019-03-31T08:34:05.962Z,90.94
2019-03-31T08:35:05.834Z,90.60
2019-03-31T08:36:58.548Z,90.46
2019-03-31T08:37:58.435Z,89.75
2019-03-31T08:39:51.125Z,89.79
2019-03-31T08:40:50.997Z,90.08
2019-03-31T08:42:43.672Z,90.94
2019-03-31T08:43:43.565Z,90.84
2019-03-31T08:45:36.253Z,91.13
2019-03-31T08:46:36.125Z,90.94
2019-03-31T08:48:28.787Z,91.03
2019-03-31T08:49:28.679Z,91.13
2019-03-31T08:51:21.490Z,89.98
2019-03-31T08:52:21.294Z,89.84
2019-03-31T08:54:13.947Z,88.79
2019-03-31T08:55:13.961Z,87.88
2019-03-31T08:57:06.526Z,85.73
2019-03-31T08:58:06.404Z,84.78
2019-03-31T08:59:59.096Z,84.30
2019-03-31T09:00:58.983Z,83.92
2019-03-31T09:02:51.678Z,83.20
2019-03-31T09:03:51.544Z,83.11
2019-03-31T09:05:44.214Z,83.34
2019-03-31T09:06:44.103Z,82.91
2019-03-31T09:08:36.798Z,82.24
2019-03-31T09:09:36.708Z,82.06
2019-03-31T09:11:29.346Z,82.11
2019-03-31T09:12:29.234Z,82.97
2019-03-31T09:14:21.930Z,84.64
2019-03-31T09:15:21.796Z,85.36
2019-03-31T09:17:14.468Z,86.41
2019-03-31T09:18:14.359Z,86.74
2019-03-31T09:20:07.059Z,85.74
2019-03-31T09:21:06.929Z,85.78
2019-03-31T09:22:59.593Z,86.26
2019-03-31T09:23:59.484Z,85.60
2019-03-31T09:25:52.173Z,83.73
2019-03-31T09:26:52.047Z,83.16
2019-03-31T09:28:44.722Z,82.34
2019-03-31T09:29:44.607Z,82.30
2019-03-31T09:31:37.309Z,83.06
2019-03-31T09:32:37.180Z,83.21
2019-03-31T09:34:29.853Z,84.07
2019-03-31T09:35:29.741Z,84.45
2019-03-31T09:37:22.435Z,84.92
2019-03-31T09:38:22.317Z,85.12
2019-03-31T09:40:14.987Z,84.83
2019-03-31T09:41:14.881Z,85.12
2019-03-31T09:43:07.567Z,85.02
2019-03-31T09:44:07.441Z,85.31
2019-03-31T09:46:00.102Z,84.83
2019-03-31T09:46:59.997Z,85.02
2019-03-31T09:48:52.682Z,85.21
2019-03-31T09:49:52.555Z,84.92
2019-03-31T09:51:45.228Z,84.45
2019-03-31T09:52:45.117Z,84.74
2019-03-31T09:54:37.809Z,84.16
2019-03-31T09:55:37.690Z,85.02
2019-03-31T09:57:31.354Z,83.78
2019-03-31T09:58:31.244Z,83.31
2019-03-31T10:00:23.936Z,83.12
2019-03-31T10:01:23.809Z,83.31
2019-03-31T10:03:16.501Z,84.07
2019-03-31T10:04:16.371Z,84.16
2019-03-31T10:06:11.059Z,82.87
2019-03-31T10:07:08.933Z,82.59
2019-03-31T10:09:01.601Z,82.78
2019-03-31T10:10:01.505Z,82.40
2019-03-31T10:11:54.189Z,82.11
2019-03-31T10:12:54.063Z,81.63
2019-03-31T10:14:46.733Z,82.30
2019-03-31T10:15:46.626Z,82.07
2019-03-31T10:17:39.316Z,82.26
2019-03-31T10:18:39.191Z,81.63
2019-03-31T10:20:31.959Z,81.54
2019-03-31T10:21:31.751Z,81.35
2019-03-31T10:23:24.462Z,80.53
2019-03-31T10:24:24.332Z,79.86
2019-03-31T10:26:31.126Z,78.62
2019-03-31T10:27:16.916Z,79.06
2019-03-31T10:29:09.607Z,79.53
2019-03-31T10:30:09.480Z,79.96
2019-03-31T10:32:02.148Z,78.62
2019-03-31T10:33:02.043Z,77.86
2019-03-31T10:34:54.733Z,77.28
2019-03-31T10:35:54.606Z,77.57
2019-03-31T10:37:47.306Z,79.10
2019-03-31T10:38:47.179Z,78.72
2019-03-31T10:40:39.887Z,78.05
2019-03-31T10:41:39.763Z,78.81
2019-03-31T10:43:32.426Z,79.44
2019-03-31T10:44:32.319Z,79.72
2019-03-31T10:46:25.012Z,79.72
2019-03-31T10:47:24.880Z,79.35
2019-03-31T10:49:17.547Z,79.53
2019-03-31T10:50:17.447Z,79.91
2019-03-31T10:52:10.131Z,79.91
2019-03-31T10:53:10.005Z,79.53
2019-03-31T10:55:02.693Z,79.35
2019-03-31T10:56:02.590Z,79.63
2019-03-31T10:57:55.303Z,79.38
2019-03-31T10:58:55.171Z,78.96
2019-03-31T11:00:47.877Z,79.25
2019-03-31T11:01:47.739Z,79.57
2019-03-31T11:03:40.438Z,78.62
2019-03-31T11:04:40.306Z,79.10
2019-03-31T11:06:32.982Z,80.01
2019-03-31T11:07:32.867Z,80.11
2019-03-31T11:09:25.554Z,80.77
2019-03-31T11:10:25.436Z,80.68
2019-03-31T11:12:18.115Z,81.97
2019-03-31T11:13:18.000Z,82.83
2019-03-31T11:15:10.691Z,83.31
2019-03-31T11:16:10.571Z,83.21
2019-03-31T11:18:03.261Z,82.45
2019-03-31T11:19:03.132Z,83.31
2019-03-31T11:20:55.827Z,83.12
2019-03-31T11:21:55.755Z,82.68
2019-03-31T11:23:48.385Z,82.30
2019-03-31T11:24:48.275Z,82.01
2019-03-31T11:26:40.960Z,80.96
2019-03-31T11:27:43.733Z,80.58
2019-03-31T11:29:33.506Z,80.43
2019-03-31T11:30:33.401Z,80.43
2019-03-31T11:32:26.092Z,80.62
2019-03-31T11:33:25.958Z,79.86
2019-03-31T11:35:18.637Z,79.77
2019-03-31T11:36:18.519Z,79.86
2019-03-31T11:38:11.221Z,79.77
2019-03-31T11:39:11.088Z,79.57
2019-03-31T11:41:03.774Z,79.28
2019-03-31T11:42:03.667Z,79.19
2019-03-31T11:43:56.355Z,77.95
2019-03-31T11:44:56.227Z,77.57
2019-03-31T11:46:48.898Z,77.70
2019-03-31T11:47:48.789Z,76.18
2019-03-31T11:49:41.485Z,74.40
2019-03-31T11:50:41.353Z,73.35
2019-03-31T11:52:34.029Z,72.43
2019-03-31T11:53:33.917Z,71.32
2019-03-31T11:55:26.628Z,69.98
2019-03-31T11:56:26.489Z,68.55
2019-03-31T11:58:19.165Z,68.55
2019-03-31T11:59:20.857Z,67.69
2019-03-31T12:01:11.743Z,66.35
2019-03-31T12:02:26.056Z,66.99
2019-03-31T12:04:04.300Z,68.86
2019-03-31T12:05:06.198Z,69.24
2019-03-31T12:06:56.883Z,70.20
2019-03-31T12:07:56.759Z,70.07
2019-03-31T12:09:49.439Z,71.82
2019-03-31T12:10:49.332Z,71.82
2019-03-31T12:12:42.034Z,70.67
2019-03-31T12:13:41.898Z,70.10
2019-03-31T12:15:34.573Z,69.27
2019-03-31T12:16:34.473Z,68.61
2019-03-31T12:18:27.174Z,67.02
2019-03-31T12:19:27.041Z,66.63
2019-03-31T12:21:19.742Z,65.14
2019-03-31T12:22:19.624Z,64.85
2019-03-31T12:24:12.289Z,63.42
2019-03-31T12:25:12.181Z,61.69
2019-03-31T12:27:05.061Z,61.60
2019-03-31T12:28:04.752Z,61.88
2019-03-31T12:29:57.432Z,62.71
2019-03-31T12:30:57.329Z,62.94
2019-03-31T12:32:50.024Z,61.60
2019-03-31T12:33:49.918Z,61.31
2019-03-31T12:35:42.574Z,61.69
2019-03-31T12:36:42.471Z,61.15
2019-03-31T12:38:35.181Z,61.15
2019-03-31T12:39:35.051Z,60.58
2019-03-31T12:41:27.740Z,59.52
2019-03-31T12:42:27.619Z,60.10
2019-03-31T12:44:20.325Z,61.44
2019-03-31T12:45:20.194Z,61.34
2019-03-31T12:47:12.885Z,61.12
2019-03-31T12:48:12.763Z,61.95
2019-03-31T12:50:05.486Z,65.04
2019-03-31T12:51:05.362Z,66.47
2019-03-31T12:52:58.045Z,68.16
2019-03-31T12:53:57.935Z,68.54
2019-03-31T12:55:59.970Z,68.29
2019-03-31T12:56:50.504Z,67.33
2019-03-31T12:58:43.209Z,66.85
2019-03-31T12:59:43.110Z,66.76
2019-03-31T13:01:35.796Z,66.56
2019-03-31T13:02:35.665Z,66.28
2019-03-31T13:04:28.353Z,66.60
2019-03-31T13:05:28.243Z,65.84
2019-03-31T13:07:20.932Z,64.18
2019-03-31T13:08:20.815Z,63.51
2019-03-31T13:10:13.493Z,62.62
2019-03-31T13:11:13.381Z,62.11
2019-03-31T13:13:06.083Z,63.45
2019-03-31T13:14:05.959Z,63.93
2019-03-31T13:15:58.633Z,63.13
2019-03-31T13:17:01.414Z,62.68
2019-03-31T13:18:51.232Z,62.59
2019-03-31T13:19:51.105Z,62.21
2019-03-31T13:21:43.790Z,62.08
2019-03-31T13:22:45.893Z,61.60
2019-03-31T13:24:36.385Z,62.01
2019-03-31T13:25:36.261Z,62.43
2019-03-31T13:27:28.946Z,61.06
2019-03-31T13:28:28.979Z,61.76
2019-03-31T13:30:22.024Z,61.28
2019-03-31T13:31:21.409Z,60.71
2019-03-31T13:33:14.089Z,61.92
2019-03-31T13:34:13.990Z,61.57
2019-03-31T13:36:06.680Z,61.66
2019-03-31T13:37:06.548Z,62.01
2019-03-31T13:38:59.228Z,62.78
2019-03-31T13:39:59.127Z,62.68
2019-03-31T13:41:51.826Z,61.63
2019-03-31T13:42:51.699Z,61.03
2019-03-31T13:44:44.377Z,61.89
2019-03-31T13:45:44.272Z,62.08
2019-03-31T13:47:36.975Z,63.60
2019-03-31T13:48:36.867Z,63.23
2019-03-31T13:50:29.526Z,62.21
2019-03-31T13:51:29.406Z,61.35
2019-03-31T13:53:22.112Z,61.63
2019-03-31T13:54:22.029Z,61.57
2019-03-31T13:56:15.275Z,61.19
2019-03-31T13:57:15.179Z,60.80
2019-03-31T13:59:09.078Z,59.34
2019-03-31T14:00:07.129Z,60.20
2019-03-31T14:02:00.312Z,61.51
2019-03-31T14:02:59.690Z,61.28
2019-03-31T14:04:52.389Z,59.27
2019-03-31T14:05:52.260Z,58.15
2019-03-31T14:07:44.941Z,57.90
2019-03-31T14:08:44.833Z,56.84
2019-03-31T14:10:37.525Z,55.79
2019-03-31T14:11:37.418Z,55.19
2019-03-31T14:13:30.088Z,57.55
2019-03-31T14:14:29.982Z,57.84
2019-03-31T14:16:22.687Z,57.84
2019-03-31T14:17:24.437Z,58.32
2019-03-31T14:19:15.235Z,57.81
2019-03-31T14:20:15.133Z,57.90
2019-03-31T14:22:07.824Z,59.12
2019-03-31T14:23:07.684Z,59.12
2019-03-31T14:25:00.491Z,59.63
2019-03-31T14:26:00.254Z,59.63
2019-03-31T14:27:52.962Z,58.32
2019-03-31T14:28:52.830Z,57.87
2019-03-31T14:30:45.505Z,56.37
2019-03-31T14:31:45.394Z,55.51
2019-03-31T14:33:38.084Z,55.76
2019-03-31T14:34:37.967Z,56.98
2019-03-31T14:36:30.651Z,58.00
2019-03-31T14:37:30.549Z,59.53
2019-03-31T14:39:23.245Z,60.93
2019-03-31T14:40:23.114Z,61.13
2019-03-31T14:42:15.913Z,60.55
2019-03-31T14:43:15.686Z,61.32
2019-03-31T14:45:08.396Z,61.76
2019-03-31T14:46:08.251Z,61.86
2019-03-31T14:48:00.923Z,62.05
2019-03-31T14:49:00.845Z,62.05
2019-03-31T14:50:53.529Z,61.47
2019-03-31T14:51:53.389Z,62.15
2019-03-31T14:53:46.073Z,62.15
2019-03-31T14:54:45.958Z,61.98
2019-03-31T14:56:38.661Z,61.03
2019-03-31T14:57:38.526Z,59.91
2019-03-31T14:59:31.197Z,59.63
2019-03-31T15:00:31.086Z,58.86
2019-03-31T15:02:23.792Z,58.29
2019-03-31T15:03:23.660Z,57.81
2019-03-31T15:05:16.339Z,58.19
2019-03-31T15:06:16.227Z,58.10
2019-03-31T15:08:08.919Z,58.22
2019-03-31T15:09:08.799Z,56.85
2019-03-31T15:11:01.466Z,55.01
2019-03-31T15:12:01.354Z,54.91
2019-03-31T15:13:54.047Z,55.08
2019-03-31T15:14:53.922Z,55.65
2019-03-31T15:16:48.418Z,55.58
2019-03-31T15:17:46.506Z,55.46
2019-03-31T15:19:39.191Z,56.25
2019-03-31T15:20:39.067Z,56.45
2019-03-31T15:22:31.749Z,55.96
2019-03-31T15:23:31.638Z,56.16
2019-03-31T15:25:24.326Z,56.04
2019-03-31T15:26:24.205Z,56.32
2019-03-31T15:28:17.000Z,56.41
2019-03-31T15:29:16.918Z,56.60
2019-03-31T15:31:09.554Z,56.70
2019-03-31T15:32:09.423Z,57.28
2019-03-31T15:34:02.131Z,55.87
2019-03-31T15:35:02.174Z,55.96
2019-03-31T15:36:54.664Z,56.45
2019-03-31T15:37:54.553Z,55.58
2019-03-31T15:39:47.254Z,54.34
2019-03-31T15:40:48.638Z,53.89
2019-03-31T15:42:39.789Z,54.53
2019-03-31T15:43:39.691Z,53.96
2019-03-31T15:45:32.382Z,53.58
2019-03-31T15:46:32.338Z,53.29
2019-03-31T15:48:24.921Z,55.13
2019-03-31T15:49:24.805Z,55.23
2019-03-31T15:51:17.506Z,53.70
2019-03-31T15:52:17.400Z,53.61
2019-03-31T15:54:10.058Z,54.44
2019-03-31T15:55:09.954Z,54.44
2019-03-31T15:57:02.660Z,54.53
2019-03-31T15:58:05.204Z,54.15
2019-03-31T15:59:55.204Z,54.91
2019-03-31T16:00:55.098Z,55.30
2019-03-31T16:02:47.792Z,55.87
2019-03-31T16:03:47.662Z,55.30
2019-03-31T16:05:40.352Z,55.11
2019-03-31T16:06:40.246Z,55.61
2019-03-31T16:08:32.942Z,54.75
2019-03-31T16:09:32.808Z,55.23
2019-03-31T16:11:25.485Z,53.77
2019-03-31T16:12:25.383Z,53.20
2019-03-31T16:14:18.071Z,53.67
2019-03-31T16:15:17.950Z,53.77
2019-03-31T16:17:10.633Z,54.50
2019-03-31T16:18:10.530Z,54.53
2019-03-31T16:20:03.223Z,54.15
2019-03-31T16:21:03.094Z,54.13
2019-03-31T16:22:55.777Z,53.93
2019-03-31T16:23:55.662Z,54.60
2019-03-31T16:25:48.360Z,54.99
2019-03-31T16:26:48.232Z,54.70
2019-03-31T16:28:40.906Z,54.79
2019-03-31T16:29:40.798Z,55.18
2019-03-31T16:31:33.486Z,53.93
2019-03-31T16:32:33.356Z,53.74
2019-03-31T16:34:26.032Z,53.05
2019-03-31T16:35:25.917Z,53.43
2019-03-31T16:37:18.624Z,54.10
2019-03-31T16:38:18.485Z,54.57
2019-03-31T16:40:11.152Z,53.81
2019-03-31T16:41:11.043Z,53.33
2019-03-31T16:43:03.740Z,53.81
2019-03-31T16:44:03.665Z,54.10
2019-03-31T16:45:56.280Z,54.10
2019-03-31T16:46:56.170Z,54.29
2019-03-31T16:48:48.866Z,53.72
2019-03-31T16:49:48.744Z,54.19
2019-03-31T16:51:41.408Z,54.38
2019-03-31T16:52:41.307Z,54.38
2019-03-31T16:54:33.996Z,53.33
2019-03-31T16:55:33.896Z,53.62
2019-03-31T16:57:26.540Z,54.48
2019-03-31T16:58:26.432Z,54.29
2019-03-31T17:00:19.143Z,53.81
2019-03-31T17:01:19.004Z,53.59
2019-03-31T17:03:11.672Z,53.12
2019-03-31T17:04:11.560Z,53.78
2019-03-31T17:06:04.257Z,54.36
2019-03-31T17:07:04.124Z,54.17
2019-03-31T17:08:56.796Z,55.02
2019-03-31T17:09:56.687Z,54.93
2019-03-31T17:11:49.373Z,54.83
2019-03-31T17:12:49.244Z,55.12
2019-03-31T17:14:41.914Z,55.41
2019-03-31T17:15:41.813Z,54.83
2019-03-31T17:17:34.499Z,55.50
2019-03-31T17:18:34.370Z,55.60
2019-03-31T17:20:27.037Z,55.60
2019-03-31T17:21:26.931Z,55.12
2019-03-31T17:23:19.612Z,54.83
2019-03-31T17:24:19.491Z,55.12
2019-03-31T17:26:12.157Z,55.47
2019-03-31T17:27:14.095Z,55.66
2019-03-31T17:29:04.738Z,55.66
2019-03-31T17:30:04.602Z,55.66
2019-03-31T17:31:57.278Z,55.47
2019-03-31T17:32:57.165Z,55.47
2019-03-31T17:34:49.845Z,55.85
2019-03-31T17:35:49.719Z,55.95
2019-03-31T17:37:42.380Z,56.43
2019-03-31T17:38:42.279Z,56.43
2019-03-31T17:40:34.973Z,56.62
2019-03-31T17:41:34.837Z,57.19
2019-03-31T17:43:27.498Z,57.16
2019-03-31T17:44:27.391Z,57.07
2019-03-31T17:46:20.072Z,57.64
2019-03-31T17:47:19.940Z,57.35
2019-03-31T17:49:12.607Z,57.82
2019-03-31T17:50:12.501Z,57.54
2019-03-31T17:52:05.195Z,57.73
2019-03-31T17:53:05.067Z,57.64
2019-03-31T17:54:57.748Z,58.11
2019-03-31T17:55:57.639Z,58.21
2019-03-31T17:57:50.305Z,58.02
2019-03-31T17:58:50.246Z,57.92
2019-03-31T18:00:42.849Z,58.08
2019-03-31T18:01:42.735Z,58.50
2019-03-31T18:03:35.437Z,59.13
2019-03-31T18:04:38.215Z,59.13
2019-03-31T18:06:27.953Z,59.51
2019-03-31T18:07:27.846Z,59.42
2019-03-31T18:09:20.531Z,59.13
2019-03-31T18:10:21.584Z,58.94
2019-03-31T18:12:13.098Z,59.99
2019-03-31T18:13:12.954Z,59.99
2019-03-31T18:15:05.654Z,60.66
2019-03-31T18:16:05.512Z,60.75
2019-03-31T18:17:58.180Z,60.75
2019-03-31T18:18:58.072Z,61.51
2019-03-31T18:20:50.764Z,61.80
2019-03-31T18:21:50.635Z,62.27
2019-03-31T18:23:43.307Z,62.08
2019-03-31T18:24:43.244Z,61.90
2019-03-31T18:26:35.872Z,62.94
2019-03-31T18:27:35.749Z,62.65
2019-03-31T18:29:28.410Z,63.01
2019-03-31T18:30:28.300Z,63.39
2019-03-31T18:32:20.996Z,63.29
2019-03-31T18:33:20.868Z,63.20
2019-03-31T18:35:16.842Z,63.48
2019-03-31T18:36:13.922Z,63.48
2019-03-31T18:38:06.602Z,63.96
2019-03-31T18:39:06.473Z,63.67
2019-03-31T18:40:59.143Z,64.24
2019-03-31T18:41:59.032Z,64.34
2019-03-31T18:43:52.100Z,64.72
2019-03-31T18:44:51.587Z,64.34
2019-03-31T18:46:44.282Z,65.00
2019-03-31T18:47:44.158Z,65.19
2019-03-31T18:49:36.834Z,65.29
2019-03-31T18:50:36.707Z,65.95
2019-03-31T18:52:29.372Z,66.11
2019-03-31T18:53:29.259Z,66.02
2019-03-31T18:55:21.934Z,66.11
2019-03-31T18:56:21.806Z,66.20
2019-03-31T18:58:14.470Z,66.30
2019-03-31T18:59:14.358Z,66.87
2019-03-31T19:01:07.055Z,67.63
2019-03-31T19:02:06.923Z,67.73
2019-03-31T19:03:59.583Z,68.40
2019-03-31T19:04:59.476Z,68.30
2019-03-31T19:06:52.165Z,68.68
2019-03-31T19:07:52.347Z,68.77
2019-03-31T19:09:44.698Z,69.35
2019-03-31T19:10:49.641Z,69.82
2019-03-31T19:12:37.274Z,69.82
2019-03-31T19:13:37.145Z,70.17
2019-03-31T19:15:29.816Z,70.20
2019-03-31T19:16:29.704Z,69.92
2019-03-31T19:18:22.396Z,70.26
2019-03-31T19:19:22.255Z,69.98
2019-03-31T19:21:14.921Z,70.64
2019-03-31T19:22:14.804Z,70.07
2019-03-31T19:24:07.482Z,69.50
2019-03-31T19:25:07.351Z,69.98
2019-03-31T19:27:00.026Z,70.26
2019-03-31T19:27:59.908Z,70.36
2019-03-31T19:29:52.588Z,70.17
2019-03-31T19:30:52.451Z,70.45
2019-03-31T19:32:45.126Z,70.64
2019-03-31T19:33:45.011Z,70.07
2019-03-31T19:35:37.688Z,70.45
2019-03-31T19:36:37.555Z,69.85
2019-03-31T19:38:30.214Z,70.45
2019-03-31T19:39:30.109Z,69.94
2019-03-31T19:41:22.802Z,68.61
2019-03-31T19:42:22.665Z,68.42
2019-03-31T19:44:15.325Z,68.04
2019-03-31T19:45:15.209Z,68.33
2019-03-31T19:47:07.889Z,68.61
2019-03-31T19:48:07.762Z,68.80
2019-03-31T19:50:00.425Z,69.85
2019-03-31T19:51:00.320Z,69.85
2019-03-31T19:52:53.001Z,69.37
2019-03-31T19:53:52.865Z,69.37
2019-03-31T19:55:45.533Z,69.37
2019-03-31T19:56:45.430Z,69.37
2019-03-31T19:58:38.105Z,69.46
2019-03-31T19:59:37.969Z,69.66
2019-03-31T20:01:30.867Z,69.37
2019-03-31T20:02:30.532Z,69.09
2019-03-31T20:04:23.206Z,69.15
2019-03-31T20:05:23.071Z,69.27
2019-03-31T20:07:15.745Z,68.96
2019-03-31T20:08:15.638Z,69.05
2019-03-31T20:10:08.341Z,69.62
2019-03-31T20:11:08.209Z,69.53
2019-03-31T20:13:00.849Z,69.81
2019-03-31T20:14:00.731Z,69.53
2019-03-31T20:15:53.412Z,69.81
2019-03-31T20:16:53.278Z,69.34
2019-03-31T20:18:45.943Z,69.34
2019-03-31T20:19:45.830Z,68.58
2019-03-31T20:21:38.516Z,68.39
2019-03-31T20:22:38.391Z,68.58
2019-03-31T20:24:31.060Z,68.67
2019-03-31T20:25:30.942Z,68.29
2019-03-31T20:27:23.618Z,68.48
2019-03-31T20:28:23.498Z,68.77
2019-03-31T20:30:16.160Z,68.86
2019-03-31T20:31:16.078Z,69.05
2019-03-31T20:33:08.724Z,68.83
2019-03-31T20:34:08.672Z,69.68
2019-03-31T20:36:01.252Z,69.78
2019-03-31T20:37:01.143Z,70.35
2019-03-31T20:38:55.552Z,69.59
2019-03-31T20:39:56.877Z,69.96
2019-03-31T20:41:46.366Z,70.06
2019-03-31T20:42:46.248Z,70.82
2019-03-31T20:44:38.930Z,71.01
2019-03-31T20:45:38.797Z,71.48
2019-03-31T20:47:31.483Z,71.39
2019-03-31T20:48:31.348Z,71.77
2019-03-31T20:50:24.029Z,72.25
2019-03-31T20:51:23.907Z,72.34
2019-03-31T20:53:16.595Z,73.38
2019-03-31T20:54:16.454Z,73.19
2019-03-31T20:56:09.121Z,73.48
2019-03-31T20:57:09.003Z,73.48
2019-03-31T20:59:01.681Z,73.67
2019-03-31T21:00:01.556Z,74.33
2019-03-31T21:01:54.223Z,74.52
2019-03-31T21:02:54.112Z,74.62
2019-03-31T21:04:46.792Z,75.28
2019-03-31T21:05:46.652Z,75.28
2019-03-31T21:07:39.312Z,75.15
2019-03-31T21:08:39.199Z,75.72
2019-03-31T21:10:31.884Z,75.34
2019-03-31T21:11:31.753Z,75.24
2019-03-31T21:13:24.415Z,75.62
2019-03-31T21:14:24.301Z,75.91
2019-03-31T21:16:17.158Z,76.10
2019-03-31T21:17:16.841Z,76.20
2019-03-31T21:19:09.531Z,76.76
2019-03-31T21:20:09.391Z,76.57
2019-03-31T21:22:02.071Z,76.76
2019-03-31T21:23:01.930Z,77.52
2019-03-31T21:24:54.591Z,77.62
2019-03-31T21:25:54.480Z,77.71
2019-03-31T21:27:47.150Z,77.24
2019-03-31T21:28:47.025Z,77.52
2019-03-31T21:30:39.682Z,77.14
2019-03-31T21:31:39.566Z,77.90
2019-03-31T21:33:32.252Z,77.62
2019-03-31T21:34:32.121Z,78.19
2019-03-31T21:36:24.797Z,78.85
2019-03-31T21:37:24.669Z,78.66
2019-03-31T21:39:17.354Z,78.75
2019-03-31T21:40:17.240Z,79.23
2019-03-31T21:42:09.877Z,79.23
2019-03-31T21:43:09.758Z,78.85
2019-03-31T21:45:02.435Z,78.85
2019-03-31T21:46:02.308Z,78.85
2019-03-31T21:47:54.971Z,78.95
2019-03-31T21:48:54.854Z,79.33
2019-03-31T21:50:47.532Z,79.04
2019-03-31T21:51:47.400Z,79.42
2019-03-31T21:53:40.068Z,79.10
2019-03-31T21:54:39.979Z,78.62
2019-03-31T21:56:32.639Z,79.00
2019-03-31T21:57:32.503Z,79.00
2019-03-31T21:59:25.159Z,78.91
